Accueil
METAR-TAF:

METAR-TAF

Aéroports :

Belgrade, Serbie

Aéroport Nikola-Tesla de Belgrade

latitude: 44-49N, longitude: 020-17E, altitude: 96 m

Observation

Le bulletin a été fait il y a 12 minutes, à 19:00 UTC
Vent 8 kt de est/sud-est
Température 11°C
Humidité 58%
Pression 1019 hPa
Visibilité 10 km ou plus
pas de nuages en-dessous de 1500 mètres et pas de cumulonimbus.

METAR: LYBE 241900Z 11008KT CAVOK 11/03 Q1019 NOSIG

Heure: 21:12 (19:12 UTC)

Prévision

Le bulletin a été fait il y a 2 heures et 12 minutes, à 17:00 UTC
Prévision valable du 24 à 18 UTC au 25 à 18 UTC
Vent 8 kt de sud-est
Visibilité 10 km ou plus
pas de nuages en-dessous de 1500 mètres et pas de cumulonimbus.

TAF: LYBE 241700Z 2418/2518 13008KT CAVOK TX22/2513Z TN08/2504Z

Observations et prévisions météorologiques de plus de 4000 aéroports (messages METAR et TAF).

Les stations disponibles sont représentées par des disques jaunes et rouges sur la carte.

Passer la souris dessus pour voir le nom de la station.

Cliquer dessus pour voir les observations et prévisions météorologiques.

Pour changer de carte: cliquez sur les boutons verts avec une croix noire pour zoomer, sur le bouton vert avec un tiret pour effectuer un zoom arrière, ou sur les flèches vertes pour les cartes adjacentes.


METAR-TAF: